createdAt,value
2022-10-04T00:02:32.361Z,9.35
2022-10-04T00:08:52.188Z,9.34
2022-10-04T00:15:15.202Z,9.3
2022-10-04T00:21:35.233Z,9.18
2022-10-04T00:27:58.243Z,9.06
2022-10-04T00:34:18.224Z,8.99
2022-10-04T00:40:41.210Z,8.97
2022-10-04T00:47:01.195Z,8.93
2022-10-04T00:53:24.223Z,8.91
2022-10-04T00:59:44.259Z,8.9
2022-10-04T01:06:07.192Z,8.9
2022-10-04T01:12:27.256Z,8.9
2022-10-04T01:18:50.155Z,8.87
2022-10-04T01:25:10.222Z,8.82
2022-10-04T01:31:33.291Z,8.8
2022-10-04T01:37:53.233Z,8.77
2022-10-04T01:44:16.198Z,8.71
2022-10-04T01:50:36.212Z,8.71
2022-10-04T01:56:59.222Z,8.71
2022-10-04T02:03:19.150Z,8.69
2022-10-04T02:09:42.228Z,8.7
2022-10-04T02:16:02.178Z,8.71
2022-10-04T02:22:25.204Z,8.67
2022-10-04T02:28:45.206Z,8.61
2022-10-04T02:35:08.160Z,8.58
2022-10-04T02:41:28.235Z,8.54
2022-10-04T02:47:51.208Z,8.49
2022-10-04T02:54:11.187Z,8.45
2022-10-04T03:00:34.276Z,8.4
2022-10-04T03:16:06.227Z,8.36
2022-10-04T03:22:26.165Z,8.32
2022-10-04T03:28:49.221Z,8.24
2022-10-04T03:35:09.281Z,8.17
2022-10-04T03:41:32.210Z,8.11
2022-10-04T03:47:52.207Z,8.11
2022-10-04T03:54:15.280Z,8.1
2022-10-04T04:00:35.182Z,8.09
2022-10-04T04:06:58.186Z,8.05
2022-10-04T04:13:18.215Z,8.03
2022-10-04T04:19:41.201Z,8.05
2022-10-04T04:26:01.163Z,8.1
2022-10-04T04:32:24.250Z,8.14
2022-10-04T04:38:44.139Z,8.14
2022-10-04T04:45:07.224Z,8.09
2022-10-04T04:51:27.340Z,8.03
2022-10-04T04:57:50.210Z,8
2022-10-04T05:04:10.251Z,7.98
2022-10-04T05:10:33.193Z,7.9
2022-10-04T05:16:53.261Z,7.84
2022-10-04T05:23:16.240Z,7.81
2022-10-04T05:29:36.217Z,7.79
2022-10-04T05:35:59.193Z,7.79
2022-10-04T05:42:19.146Z,7.75
2022-10-04T05:48:42.229Z,7.73
2022-10-04T05:55:02.318Z,7.72
2022-10-04T06:01:25.220Z,7.78
2022-10-04T06:07:45.294Z,7.84
2022-10-04T06:14:08.178Z,7.92
2022-10-04T06:20:28.265Z,8.03
2022-10-04T06:26:51.204Z,8.09
2022-10-04T06:33:11.207Z,8.12
2022-10-04T06:39:34.200Z,8.18
2022-10-04T06:45:54.244Z,8.25
2022-10-04T06:52:17.653Z,8.36
2022-10-04T06:58:37.229Z,8.46
2022-10-04T07:05:08.772Z,8.56
2022-10-04T07:11:20.285Z,8.66
2022-10-04T07:17:43.207Z,8.8
2022-10-04T07:24:03.313Z,8.96
2022-10-04T07:30:26.169Z,9.17
2022-10-04T07:36:46.259Z,9.48
2022-10-04T07:43:09.192Z,9.85
2022-10-04T07:49:29.507Z,10.17
2022-10-04T07:55:52.299Z,10.43
2022-10-04T08:18:58.184Z,11.32
2022-10-04T08:25:18.144Z,11.56
2022-10-04T08:31:41.191Z,11.79
2022-10-04T08:38:01.185Z,11.92
2022-10-04T08:44:24.184Z,11.98
2022-10-04T08:50:44.234Z,12.05
2022-10-04T08:57:08.048Z,12.21
2022-10-04T09:03:27.185Z,12.42
2022-10-04T09:09:50.534Z,12.7
2022-10-04T09:16:10.564Z,12.99
2022-10-04T09:22:34.269Z,13.33
2022-10-04T09:28:54.184Z,13.64
2022-10-04T09:35:17.390Z,13.92
2022-10-04T09:41:37.337Z,14.27
2022-10-04T09:48:00.406Z,14.6
2022-10-04T09:54:20.231Z,14.93
2022-10-04T10:00:43.160Z,15.27
2022-10-04T10:07:03.470Z,15.49
2022-10-04T10:13:30.001Z,15.5
2022-10-04T10:19:46.159Z,15.58
2022-10-04T10:26:09.209Z,16.07
2022-10-04T10:32:29.243Z,16.37
2022-10-04T10:38:52.178Z,16.53
2022-10-04T10:45:12.386Z,16.99
2022-10-04T10:51:35.533Z,17.56
2022-10-04T10:57:55.160Z,18.04
2022-10-04T11:04:18.170Z,18.13
2022-10-04T11:10:38.266Z,18.3
2022-10-04T11:17:01.313Z,18.4
2022-10-04T11:23:21.200Z,18.49
2022-10-04T11:29:44.189Z,18.77
2022-10-04T11:36:04.369Z,19
2022-10-04T11:42:27.159Z,19.27
2022-10-04T11:48:47.192Z,19.6
2022-10-04T11:55:10.226Z,19.83
2022-10-04T12:01:30.146Z,19.98
2022-10-04T12:07:53.221Z,20.4
2022-10-04T12:14:13.347Z,20.79
2022-10-04T12:20:36.166Z,20.97
2022-10-04T12:26:56.201Z,21.04
2022-10-04T12:33:19.192Z,21.05
2022-10-04T12:39:39.204Z,21.25
2022-10-04T12:46:02.243Z,21.44
2022-10-04T12:52:22.317Z,21.66
2022-10-04T12:58:45.163Z,21.8
2022-10-04T13:05:05.175Z,21.88
2022-10-04T13:11:28.217Z,21.9
2022-10-04T13:34:50.752Z,21.58
2022-10-04T13:41:10.179Z,21.25
2022-10-04T13:47:33.225Z,21.02
2022-10-04T13:53:54.337Z,20.89
2022-10-04T14:00:16.164Z,20.74
2022-10-04T14:06:36.210Z,20.58
2022-10-04T14:12:59.188Z,20.49
2022-10-04T14:19:19.175Z,20.51
2022-10-04T14:25:42.157Z,20.51
2022-10-04T14:32:02.462Z,20.53
2022-10-04T14:38:26.832Z,20.5
2022-10-04T14:44:45.534Z,20.43
2022-10-04T14:51:08.251Z,20.4
2022-10-04T14:57:28.185Z,20.35
2022-10-04T15:03:51.192Z,20.32
2022-10-04T15:10:11.188Z,20.22
2022-10-04T15:16:35.281Z,20.09
2022-10-04T15:22:55.308Z,19.98
2022-10-04T15:29:18.194Z,19.85
2022-10-04T15:35:38.209Z,19.68
2022-10-04T15:42:01.205Z,19.56
2022-10-04T15:48:21.523Z,19.44
2022-10-04T15:54:44.481Z,19.33
2022-10-04T16:01:04.256Z,19.23
2022-10-04T16:07:27.203Z,19.11
2022-10-04T16:13:47.171Z,18.96
2022-10-04T16:20:10.349Z,18.78
2022-10-04T16:26:30.314Z,18.56
2022-10-04T16:32:53.273Z,18.32
2022-10-04T16:39:13.237Z,18.05
2022-10-04T16:45:36.265Z,17.77
2022-10-04T16:51:56.400Z,17.46
2022-10-04T16:58:19.355Z,17.12
2022-10-04T17:04:39.341Z,16.81
2022-10-04T17:11:02.232Z,16.51
2022-10-04T17:17:22.181Z,16.19
2022-10-04T17:23:45.367Z,15.91
2022-10-04T17:30:05.152Z,15.67
2022-10-04T17:36:28.198Z,15.45
2022-10-04T17:42:48.327Z,15.19
2022-10-04T17:49:11.170Z,14.94
2022-10-04T17:55:31.278Z,14.72
2022-10-04T18:01:54.302Z,14.56
2022-10-04T18:08:14.718Z,14.42
2022-10-04T18:24:43.251Z,14.19
2022-10-04T18:31:03.168Z,13.98
2022-10-04T18:37:26.170Z,13.8
2022-10-04T18:43:46.197Z,13.67
2022-10-04T18:50:09.159Z,13.57
2022-10-04T18:56:33.196Z,13.53
2022-10-04T19:02:52.202Z,13.5
2022-10-04T19:09:12.208Z,13.4
2022-10-04T19:15:35.219Z,13.32
2022-10-04T19:21:55.257Z,13.24
2022-10-04T19:28:18.420Z,13.16
2022-10-04T19:34:38.198Z,13.05
2022-10-04T19:41:01.254Z,12.94
2022-10-04T19:47:21.314Z,12.85
2022-10-04T19:53:44.271Z,12.78
2022-10-04T20:00:04.197Z,12.75
2022-10-04T20:06:27.142Z,12.73
2022-10-04T20:12:47.185Z,12.7
2022-10-04T20:19:10.192Z,12.68
2022-10-04T20:25:30.296Z,12.66
2022-10-04T20:31:53.242Z,12.66
2022-10-04T20:44:37.198Z,12.6
2022-10-04T20:50:57.164Z,12.55
2022-10-04T20:57:20.257Z,12.53
2022-10-04T21:03:40.234Z,12.48
2022-10-04T21:10:03.340Z,12.4
2022-10-04T21:16:23.244Z,12.32
2022-10-04T21:22:49.794Z,12.29
2022-10-04T21:29:06.239Z,12.22
2022-10-04T21:35:29.264Z,12.1
2022-10-04T21:41:49.229Z,12
2022-10-04T21:48:12.226Z,11.91
2022-10-04T21:54:32.226Z,11.79
2022-10-04T22:20:06.190Z,11.49
2022-10-04T22:26:26.143Z,11.49
2022-10-04T22:32:49.164Z,11.42
2022-10-04T22:39:09.307Z,11.34
2022-10-04T22:45:32.198Z,11.3
2022-10-04T22:51:52.234Z,11.29
2022-10-04T22:58:15.235Z,11.21
2022-10-04T23:04:35.214Z,11.11
2022-10-04T23:10:58.138Z,11.01
2022-10-04T23:17:18.258Z,10.92
2022-10-04T23:23:41.148Z,10.83
2022-10-04T23:30:01.201Z,10.79
2022-10-04T23:36:24.167Z,10.76
2022-10-04T23:42:44.230Z,10.76
2022-10-04T23:49:07.188Z,10.75
2022-10-04T23:55:27.163Z,10.74
